Buoy 13516

sailwx.info

Track history (hours):
 
Tides and Currents Weather Stations Pressure Air Temp Water Temp Dewpoint Dewpoint Depression Visibility Wind Speed Wind Dir Waves Ship Positions

Ao Chao Yang 13516

Last reported at 2014-Jul-30 09:29 UTC. Time now 2014-Jul-30 11:12 UTC.
Position N 26°55' W 035°07'.

Length 20 m.

Type: Fishing. MMSI: 412469022.

Water temperature 26.0 ° C

Date/timePositionNaut miles runAvg speedWind from/ knotsBaromVisibWave heightAir tempDewpointWater temp
2014-Jul-30 09:29N 26°55' W 035°07'1 1.0 26.0
2014-Jul-30 08:53N 26°55' W 035°07'1 1.0 26.0
2014-Jul-30 08:15N 26°56' W 035°07'0 2.6 26.0
2014-Jul-30 08:08N 26°56' W 035°07'0 0.0 26.0
2014-Jul-30 07:50N 26°56' W 035°07'0 0.6 26.0
2014-Jul-30 07:17N 26°56' W 035°07'0 0.4 26.0
2014-Jul-30 06:38N 26°56' W 035°07'0 3.6 26.0
2014-Jul-30 06:30N 26°56' W 035°06'0 0.0 26.0
2014-Jul-30 06:06N 26°56' W 035°06'0 0.0 26.0
2014-Jul-30 05:48N 26°56' W 035°06'1 7.2 26.0
2014-Jul-30 05:41N 26°57' W 035°06'0 0.0 26.0
2014-Jul-30 04:08N 26°57' W 035°06'0 3.7 26.0
2014-Jul-30 04:02N 26°57' W 035°07'0 0.1 26.0
2014-Jul-30 00:51N 26°57' W 035°07'0 0.0 26.1
2014-Jul-30 00:02N 26°57' W 035°07'0 0.0 26.2
2014-Jul-29 23:59N 26°57' W 035°07'0 0.4 26.2
2014-Jul-29 23:08N 26°58' W 035°07'0 3.3 26.2
2014-Jul-29 23:02N 26°58' W 035°07'0 0.0 26.2
2014-Jul-29 22:20N 26°58' W 035°07'0 2.6 26.3
2014-Jul-29 22:17N 26°58' W 035°07'0 0.2 26.3
2014-Jul-29 20:38N 26°58' W 035°06'0 2.3 26.4
2014-Jul-29 20:30N 26°57' W 035°06'0 0.0 26.4
2014-Jul-29 19:48N 26°57' W 035°06'111.3 26.4
2014-Jul-29 19:45N 26°57' W 035°06'0 0.0 26.4
2014-Jul-29 18:56N 26°57' W 035°06'0 0.1 26.6
2014-Jul-29 18:08N 26°57' W 035°06'1 9.7 26.7
2014-Jul-29 18:03N 26°57' W 035°05'0 0.0 26.7
2014-Jul-29 17:20N 26°57' W 035°05'1 7.7 26.7
2014-Jul-29 17:15N 26°57' W 035°04'0 0.0 26.7
2014-Jul-29 17:14N 26°57' W 035°04'0 0.0 26.7
2014-Jul-29 16:26N 26°57' W 035°04'0 0.1 26.7
2014-Jul-29 15:38N 26°57' W 035°04'1 0.6 26.8
2014-Jul-29 13:51N 26°58' W 035°03'1 3.2 26.6
2014-Jul-29 13:38N 26°58' W 035°02'0 0.1 26.6
2014-Jul-29 12:38N 26°58' W 035°02'0 0.3 26.4
2014-Jul-29 11:51N 26°58' W 035°02'144.1 26.3
2014-Jul-29 11:50N 26°58' W 035°01'0 0.0 26.2
2014-Jul-29 11:02N 26°58' W 035°01'0 4.5 26.1
2014-Jul-29 10:57N 26°58' W 035°01'0 0.0 26.1
2014-Jul-29 09:57N 26°58' W 035°01'1 0.8 25.9
2014-Jul-29 08:24N 26°59' W 035°00'0 6.4 25.9
2014-Jul-29 08:21N 26°59' W 034°60'0 0.0 25.9
2014-Jul-29 07:38N 26°59' W 034°60'1 0.9 25.9
2014-Jul-29 06:48N 27°00' W 034°59'0 3.0 25.9
2014-Jul-29 06:39N 27°00' W 034°59'0 0.0 25.9
2014-Jul-29 06:00N 27°00' W 034°59'116.2 25.9
2014-Jul-29 05:56N 27°01' W 034°59'0 0.0 25.9
2014-Jul-29 04:17N 27°01' W 034°59'1 6.2 26.0
2014-Jul-29 04:11N 27°02' W 034°59'1 0.6 26.0
2014-Jul-29 02:35N 27°02' W 034°60'0 0.0 25.9
2014-Jul-29 01:11N 27°02' W 034°60'0 0.0 26.0
2014-Jul-29 00:21N 27°02' W 034°60'1 0.8 26.0
2014-Jul-28 23:35N 27°03' W 034°59'115.0 26.2
2014-Jul-28 23:32N 27°03' W 035°00'0 0.0 26.2
2014-Jul-28 23:26N 27°03' W 035°00'0 0.2 26.2
2014-Jul-28 22:44N 27°03' W 035°00'0 1.5 26.4
2014-Jul-28 22:39N 27°03' W 035°00'115.6 26.4
2014-Jul-28 22:36N 27°02' W 035°01'0 7.4 26.4
2014-Jul-28 22:32N 27°03' W 035°00'1 0.4 26.4
2014-Jul-28 21:00N 27°03' W 034°60'0 0.2 26.7
2014-Jul-28 20:00N 27°03' W 034°60'0 0.0 27.5
2014-Jul-28 19:23N 27°03' W 034°60'0 0.0 27.8
2014-Jul-28 18:21N 27°03' W 034°60'0 0.7 27.6
2014-Jul-28 17:42N 27°03' W 034°59'0 0.9 27.3
2014-Jul-28 17:30N 27°03' W 034°59'1 0.6 27.4
2014-Jul-28 16:38N 27°02' W 034°59'0 0.0 26.9
2014-Jul-28 15:53N 27°02' W 034°59'2 0.9 27.6
2014-Jul-28 14:08N 27°02' W 034°57'0 0.0 26.6
2014-Jul-28 12:20N 27°02' W 034°57'0 3.3 26.3
2014-Jul-28 12:12N 27°02' W 034°57'0 0.0 26.3
2014-Jul-28 11:23N 27°02' W 034°57'0 6.0
2014-Jul-28 11:21N 27°02' W 034°57'113.6 25.9
2014-Jul-28 11:18N 27°03' W 034°57'0 0.0 25.9
2014-Jul-28 10:36N 27°03' W 034°57'1 9.0 25.9
2014-Jul-28 10:32N 27°03' W 034°56'0 0.0 25.9
2014-Jul-28 09:45N 27°03' W 034°56'110.4 25.9
2014-Jul-28 09:42N 27°03' W 034°56'0 0.0 25.9
2014-Jul-28 08:53N 27°03' W 034°56'0 0.6 25.7
2014-Jul-28 08:38N 27°03' W 034°55'1 0.6 25.7
2014-Jul-28 07:08N 27°03' W 034°55'0 0.0 25.8
2014-Jul-28 06:53N 27°03' W 034°55'0 9.1 25.8
2014-Jul-28 06:51N 27°04' W 034°55'0 0.0 25.8
2014-Jul-28 06:27N 27°04' W 034°55'0 1.3 25.8
2014-Jul-28 06:21N 27°04' W 034°55'0 0.0 25.7
2014-Jul-28 06:08N 27°04' W 034°55'1 7.3 25.8
2014-Jul-28 06:03N 27°04' W 034°54'0 0.0 25.8
2014-Jul-28 05:18N 27°04' W 034°54'0 0.3 25.8
2014-Jul-28 04:29N 27°04' W 034°54'211.3 25.8
2014-Jul-28 04:21N 27°06' W 034°54'0 0.0 25.8
2014-Jul-28 02:47N 27°06' W 034°54'0 0.0 25.8
2014-Jul-28 00:38N 27°06' W 034°54'0 0.2 25.9
2014-Jul-27 23:53N 27°06' W 034°54'0 1.2 26.0
2014-Jul-27 23:45N 27°06' W 034°54'0 0.0 26.0
2014-Jul-27 23:03N 27°06' W 034°54'0 2.8 26.0
2014-Jul-27 22:57N 27°06' W 034°55'0 1.6 26.0
2014-Jul-27 22:53N 27°06' W 034°54'0 0.1 26.0
2014-Jul-27 22:06N 27°06' W 034°55'0 0.0 26.0
2014-Jul-27 21:42N 27°06' W 034°55'0 0.2 26.1
2014-Jul-27 19:53N 27°06' W 034°54'0 0.0 26.2
2014-Jul-27 19:48N 27°06' W 034°54'0 5.3 26.2
2014-Jul-27 19:45N 27°07' W 034°54'0 0.0 26.2
2014-Jul-27 18:30N 27°07' W 034°54'0 0.0
2014-Jul-27 18:29N 27°07' W 034°54'0 0.2 26.3
2014-Jul-27 18:08N 27°07' W 034°54'1 1.8 26.4
2014-Jul-27 17:41N 27°06' W 034°54'0 0.0 26.6
2014-Jul-27 16:50N 27°06' W 034°54'0 0.5 26.6
2014-Jul-27 16:03N 27°06' W 034°54'0 0.0 26.2
2014-Jul-27 14:20N 27°06' W 034°54'1 0.7 25.9
2014-Jul-27 12:36N 27°06' W 034°52'0 0.0 25.7
2014-Jul-27 12:29N 27°06' W 034°52'0 0.1 25.7
2014-Jul-27 11:44N 27°06' W 034°52'1 8.1 25.7
2014-Jul-27 11:38N 27°06' W 034°51'0 0.0 25.7
2014-Jul-27 10:57N 27°06' W 034°51'110.6 25.7
2014-Jul-27 10:53N 27°06' W 034°51'0 0.0 25.7
2014-Jul-27 09:21N 27°06' W 034°51'0 0.8 25.7
2014-Jul-27 08:47N 27°06' W 034°50'0 3.2 25.7
2014-Jul-27 08:44N 27°07' W 034°50'0 0.0 25.7
2014-Jul-27 08:30N 27°07' W 034°50'0 0.3 25.7
2014-Jul-27 07:44N 27°07' W 034°50'0 0.5 25.7
2014-Jul-27 07:08N 27°07' W 034°50'0 4.1 25.7
2014-Jul-27 07:03N 27°07' W 034°50'0 1.1 25.7
2014-Jul-27 07:00N 27°07' W 034°50'0 0.0 25.7
2014-Jul-27 06:48N 27°07' W 034°50'110.1 25.7
2014-Jul-27 06:45N 27°08' W 034°50'0 0.0 25.7
2014-Jul-27 06:21N 27°08' W 034°50'1 4.4 25.7
2014-Jul-27 06:14N 27°08' W 034°49'0 0.0 25.7
2014-Jul-27 05:30N 27°08' W 034°49'0 4.9 25.7
2014-Jul-27 05:27N 27°08' W 034°49'1 0.6 25.7
2014-Jul-27 04:36N 27°08' W 034°49'1 0.7 25.7
2014-Jul-27 03:00N 27°09' W 034°49'0 5.8 25.7
2014-Jul-27 02:57N 27°09' W 034°49'1 9.2 25.7
2014-Jul-27 02:51N 27°10' W 034°48'0 0.0
2014-Jul-27 01:02N 27°10' W 034°48'0 2.9 25.6
2014-Jul-27 00:57N 27°10' W 034°48'0 0.3 25.6
2014-Jul-27 00:15N 27°10' W 034°48'0 2.7 25.6
2014-Jul-27 00:08N 27°10' W 034°48'0 0.0
2014-Jul-26 23:23N 27°10' W 034°48'0 3.2 25.7
2014-Jul-26 23:17N 27°10' W 034°48'0 0.0 25.7
2014-Jul-26 22:35N 27°10' W 034°48'0 2.6 25.7
2014-Jul-26 22:32N 27°10' W 034°48'0 5.0 25.7
2014-Jul-26 22:26N 27°11' W 034°49'0 1.0 25.7
2014-Jul-26 22:12N 27°10' W 034°49'0 3.6 25.8
2014-Jul-26 22:08N 27°11' W 034°49'0 0.5 25.8
2014-Jul-26 21:41N 27°10' W 034°49'0 0.3 25.8
2014-Jul-26 20:26N 27°11' W 034°49'0 1.0 25.9
2014-Jul-26 20:06N 27°10' W 034°49'0 0.2 25.9
2014-Jul-26 18:38N 27°11' W 034°49'0 2.4 26.1
2014-Jul-26 18:32N 27°11' W 034°49'1 1.2 26.1
2014-Jul-26 17:51N 27°10' W 034°48'1 0.6 26.1
2014-Jul-26 17:02N 27°10' W 034°49'0 0.1 26.1
2014-Jul-26 16:14N 27°10' W 034°49'0 0.0 26.1
2014-Jul-26 16:08N 27°10' W 034°49'1 0.9 26.1
2014-Jul-26 14:32N 27°10' W 034°47'0 0.0 25.9
2014-Jul-26 13:45N 27°10' W 034°47'0 0.0 25.9
2014-Jul-26 13:02N 27°10' W 034°47'1 0.6 25.9
2014-Jul-26 12:05N 27°10' W 034°47'1 5.5 25.7
2014-Jul-26 11:59N 27°10' W 034°47'0 0.0 25.7
2014-Jul-26 11:20N 27°10' W 034°47'1 6.3 25.7
2014-Jul-26 11:15N 27°10' W 034°47'113.3 25.7
2014-Jul-26 11:11N 27°10' W 034°46'0 0.0 25.7
2014-Jul-26 10:24N 27°10' W 034°46'1 9.9 25.7
2014-Jul-26 10:20N 27°10' W 034°46'1 1.3 25.7
2014-Jul-26 09:51N 27°10' W 034°46'0 0.0 25.6
2014-Jul-26 08:53N 27°10' W 034°46'1 2.0 25.6
2014-Jul-26 08:15N 27°10' W 034°44'0 0.3 25.6
2014-Jul-26 06:35N 27°11' W 034°44'0 1.3 25.8
2014-Jul-26 06:30N 27°11' W 034°44'0 0.0 25.8
2014-Jul-26 05:38N 27°11' W 034°44'0 0.6 25.9
2014-Jul-26 04:50N 27°11' W 034°44'111.6 26.1
2014-Jul-26 04:44N 27°12' W 034°43'0 0.2 26.1
2014-Jul-26 03:08N 27°12' W 034°43'120.6
2014-Jul-26 03:05N 27°13' W 034°42'0 0.0 26.3
2014-Jul-26 01:21N 27°13' W 034°42'0 5.8 26.6
2014-Jul-26 01:18N 27°13' W 034°42'0 0.4 26.6
2014-Jul-26 00:36N 27°14' W 034°42'0 0.2 26.7
2014-Jul-25 22:51N 27°14' W 034°42'013.3
2014-Jul-25 22:50N 27°14' W 034°42'0 0.4 27.2
2014-Jul-25 22:41N 27°14' W 034°42'0 0.5 27.2
2014-Jul-25 22:02N 27°14' W 034°41'1 0.7 27.2
2014-Jul-25 21:06N 27°14' W 034°42'1 1.0 27.6
2014-Jul-25 20:36N 27°14' W 034°43'0 0.0 26.9
2014-Jul-25 19:17N 27°14' W 034°43'0 0.0 27.2
2014-Jul-25 18:53N 27°14' W 034°43'1 0.4 27.3
2014-Jul-25 17:14N 27°14' W 034°42'0 0.2 28.2
2014-Jul-25 16:26N 27°14' W 034°42'0 6.4 28.5
2014-Jul-25 16:23N 27°14' W 034°42'0 0.3 28.5
2014-Jul-25 14:42N 27°14' W 034°42'0 0.0 27.8
2014-Jul-25 14:05N 27°14' W 034°42'0 0.0 27.6
2014-Jul-25 13:21N 27°14' W 034°42'0 0.0 27.6
2014-Jul-25 13:17N 27°14' W 034°42'0 0.1 27.6
2014-Jul-25 12:23N 27°15' W 034°42'0 4.7 26.9
2014-Jul-25 12:18N 27°15' W 034°41'0 0.0 26.9
2014-Jul-25 11:38N 27°15' W 034°41'0 1.6
2014-Jul-25 11:36N 27°15' W 034°41'0 6.8 26.1
2014-Jul-25 11:33N 27°15' W 034°42'0 0.5 26.1
2014-Jul-25 10:45N 27°15' W 034°41'1 5.3 25.7
2014-Jul-25 10:38N 27°15' W 034°41'0 0.0
2014-Jul-25 09:21N 27°15' W 034°41'0 0.8 25.5
2014-Jul-25 08:47N 27°14' W 034°40'1 0.5 25.5
2014-Jul-25 07:29N 27°14' W 034°40'0 0.0 25.5
2014-Jul-25 07:24N 27°14' W 034°40'0 0.0 25.5
2014-Jul-25 07:06N 27°14' W 034°40'1 1.4 25.5
2014-Jul-25 06:39N 27°14' W 034°39'0 0.1 25.5
2014-Jul-25 05:56N 27°14' W 034°39'0 0.0 25.5
2014-Jul-25 05:51N 27°14' W 034°39'1 0.7 25.6
2014-Jul-25 05:02N 27°15' W 034°39'1 8.6 25.6
2014-Jul-25 04:53N 27°16' W 034°38'0 0.1
2014-Jul-25 03:21N 27°16' W 034°38'112.8 25.7
2014-Jul-25 03:15N 27°17' W 034°37'0 0.0 25.7
2014-Jul-25 00:56N 27°17' W 034°37'0 0.0 25.8
2014-Jul-25 00:05N 27°17' W 034°37'0 1.6 25.9
2014-Jul-25 00:02N 27°17' W 034°37'1 0.7 25.9
2014-Jul-24 23:17N 27°17' W 034°37'0 3.3 25.9
2014-Jul-24 23:08N 27°17' W 034°37'0 0.0 25.9
2014-Jul-24 22:23N 27°17' W 034°37'0 9.9 26.0
2014-Jul-24 22:20N 27°18' W 034°37'0 0.0 26.0
2014-Jul-24 22:14N 27°18' W 034°37'0 0.0 26.0
2014-Jul-24 21:36N 27°18' W 034°37'0 0.7 26.2
2014-Jul-24 20:59N 27°18' W 034°37'0 0.0 26.2
2014-Jul-24 19:50N 27°18' W 034°37'0 8.6 26.4
2014-Jul-24 19:47N 27°18' W 034°37'0 0.1 26.4
2014-Jul-24 19:05N 27°18' W 034°37'0 0.1 26.2
2014-Jul-24 17:39N 27°18' W 034°37'0 0.4 26.2
2014-Jul-24 17:26N 27°18' W 034°37'0 0.5 26.2
2014-Jul-24 16:36N 27°19' W 034°37'0 0.0 26.0
2014-Jul-24 14:53N 27°19' W 034°37'1 0.6 26.2
2014-Jul-24 13:41N 27°19' W 034°36'0 8.9 26.0
2014-Jul-24 13:38N 27°19' W 034°37'0 0.5 25.9
2014-Jul-24 12:44N 27°19' W 034°36'0 3.3 25.7
2014-Jul-24 12:38N 27°20' W 034°37'0 0.0 25.7
2014-Jul-24 12:03N 27°20' W 034°37'0 0.0 25.6
2014-Jul-24 12:00N 27°20' W 034°37'0 0.0 25.6
2014-Jul-24 11:57N 27°20' W 034°37'0 3.1 25.6
2014-Jul-24 11:53N 27°20' W 034°37'0 0.0 25.5
2014-Jul-24 11:06N 27°20' W 034°37'0 2.7 25.4
2014-Jul-24 11:02N 27°20' W 034°37'1 0.5 25.4
2014-Jul-24 09:44N 27°19' W 034°37'127.3 25.3
2014-Jul-24 09:41N 27°19' W 034°35'1 2.8 25.3
2014-Jul-24 09:17N 27°19' W 034°36'1 0.9 25.3
2014-Jul-24 08:02N 27°19' W 034°35'0 0.6 25.3
2014-Jul-24 07:39N 27°19' W 034°35'013.3 25.3
2014-Jul-24 07:38N 27°19' W 034°35'0 0.4 25.3
2014-Jul-24 06:26N 27°19' W 034°36'0 1.3 25.3
2014-Jul-24 06:20N 27°19' W 034°36'0 0.0 25.3
2014-Jul-24 06:05N 27°19' W 034°36'0 4.2 25.3
2014-Jul-24 06:02N 27°19' W 034°36'1 7.2 25.3
2014-Jul-24 05:57N 27°19' W 034°35'0 0.0 25.3
2014-Jul-24 05:08N 27°19' W 034°35'112.0 25.4
2014-Jul-24 05:05N 27°19' W 034°35'0 0.1 25.4
2014-Jul-24 03:35N 27°19' W 034°35'0 0.0 25.4
2014-Jul-24 03:32N 27°19' W 034°35'1 9.7 25.4
2014-Jul-24 03:26N 27°20' W 034°34'0 0.0 25.4
2014-Jul-24 01:11N 27°20' W 034°34'0 0.0 25.4
2014-Jul-24 00:26N 27°20' W 034°34'0 0.2 25.4
2014-Jul-23 23:38N 27°20' W 034°34'0 0.0 25.4
2014-Jul-23 23:33N 27°20' W 034°34'0 0.0 25.4
2014-Jul-23 22:45N 27°20' W 034°34'0 1.2 25.4
2014-Jul-23 22:39N 27°20' W 034°34'1 8.1 25.4
2014-Jul-23 22:35N 27°21' W 034°34'0 0.0 25.4
2014-Jul-23 22:06N 27°21' W 034°34'0 1.2 25.5
2014-Jul-23 21:51N 27°21' W 034°34'0 0.1 25.5
2014-Jul-23 20:20N 27°21' W 034°34'0 0.0 25.6
2014-Jul-23 19:47N 27°21' W 034°34'0 0.2 25.6
2014-Jul-23 19:17N 27°21' W 034°34'0 0.1 25.7
2014-Jul-23 18:06N 27°21' W 034°34'0 0.0 25.7
2014-Jul-23 17:36N 27°21' W 034°34'1 1.1 25.7
2014-Jul-23 16:45N 27°22' W 034°33'1 0.4 25.6
2014-Jul-23 15:06N 27°21' W 034°33'0 0.3 25.7
2014-Jul-23 13:59N 27°21' W 034°33'0 0.4 25.5
2014-Jul-23 13:08N 27°21' W 034°33'0 2.6 25.5
2014-Jul-23 13:00N 27°21' W 034°33'0 0.0 25.5
2014-Jul-23 12:23N 27°21' W 034°33'0 0.9 25.4
2014-Jul-23 12:15N 27°21' W 034°33'0 0.0 25.4
2014-Jul-23 11:27N 27°21' W 034°33'0 5.6 25.3
2014-Jul-23 11:24N 27°21' W 034°32'0 5.5 25.3
2014-Jul-23 11:21N 27°21' W 034°32'0 0.6 25.3
2014-Jul-23 10:39N 27°21' W 034°32'0 0.0 25.3
2014-Jul-23 09:47N 27°21' W 034°32'1 0.6 25.2
2014-Jul-23 08:26N 27°21' W 034°32'1 3.9 25.2
2014-Jul-23 08:08N 27°21' W 034°33'1 4.7 25.2
2014-Jul-23 07:53N 27°21' W 034°32'0 0.0 25.2
2014-Jul-23 07:48N 27°21' W 034°32'0 0.0 25.2
2014-Jul-23 06:51N 27°21' W 034°32'1 1.9 25.2
2014-Jul-23 06:29N 27°21' W 034°31'0 1.0 25.3
2014-Jul-23 06:17N 27°21' W 034°31'0 0.0 25.3
2014-Jul-23 06:14N 27°21' W 034°31'0 4.6 25.3
2014-Jul-23 06:08N 27°21' W 034°31'0 0.0 25.3
2014-Jul-23 05:23N 27°21' W 034°31'0 3.2 25.3
2014-Jul-23 05:15N 27°22' W 034°30'0 0.1 25.3
2014-Jul-23 03:47N 27°22' W 034°30'0 0.0 25.4
2014-Jul-23 03:42N 27°22' W 034°30'0 4.5 25.4
2014-Jul-23 03:38N 27°22' W 034°30'0 0.0 25.4
2014-Jul-23 00:45N 27°22' W 034°30'0 0.5 25.4
2014-Jul-22 23:51N 27°22' W 034°30'0 0.0 25.4
2014-Jul-22 23:06N 27°22' W 034°30'1 5.9 25.4
2014-Jul-22 23:00N 27°22' W 034°31'1 1.0 25.4
2014-Jul-22 22:18N 27°22' W 034°30'0 3.2 25.5
2014-Jul-22 22:15N 27°22' W 034°30'0 0.0
2014-Jul-22 22:08N 27°22' W 034°30'1 0.5 25.5
2014-Jul-22 20:53N 27°23' W 034°30'115.3 25.5
2014-Jul-22 20:50N 27°22' W 034°29'0 0.0 25.5
2014-Jul-22 20:11N 27°22' W 034°29'0 0.2 25.6
2014-Jul-22 19:29N 27°22' W 034°29'0 0.9 25.7
2014-Jul-22 19:12N 27°22' W 034°30'0 0.0 25.7
2014-Jul-22 18:30N 27°22' W 034°30'0 4.8 25.8
2014-Jul-22 18:29N 27°22' W 034°29'0 0.5 25.8
2014-Jul-22 17:48N 27°22' W 034°29'0 0.3 25.9
2014-Jul-22 16:57N 27°22' W 034°29'0 0.0 26.0
2014-Jul-22 16:53N 27°22' W 034°29'1 0.5 26.0
2014-Jul-22 15:17N 27°22' W 034°28'1 0.1 25.7
2014-Jul-22 11:48N 27°22' W 034°28'0 1.7 25.4
2014-Jul-22 11:42N 27°22' W 034°28'1 8.0 25.4
2014-Jul-22 11:38N 27°22' W 034°27'0 0.0
2014-Jul-22 11:02N 27°22' W 034°27'0 2.4 25.4
2014-Jul-22 10:59N 27°22' W 034°27'114.7 25.4
2014-Jul-22 10:56N 27°22' W 034°26'0 0.0 25.4
2014-Jul-22 08:53N 27°22' W 034°26'0 0.4 25.3
2014-Jul-22 08:03N 27°22' W 034°26'1 9.0 25.3
2014-Jul-22 07:59N 27°22' W 034°25'0 0.0 25.3
2014-Jul-22 07:14N 27°22' W 034°25'0 1.6 25.3
2014-Jul-22 07:02N 27°23' W 034°25'0 0.6 25.3
2014-Jul-22 06:27N 27°22' W 034°25'0 2.4 25.3
2014-Jul-22 06:24N 27°22' W 034°25'0 4.9 25.3
2014-Jul-22 06:18N 27°22' W 034°25'0 0.6 25.3
2014-Jul-22 05:32N 27°22' W 034°24'1 0.4 25.4
2014-Jul-22 03:53N 27°23' W 034°24'0 9.6 25.4
2014-Jul-22 03:50N 27°23' W 034°24'115.4 25.4
2014-Jul-22 03:45N 27°24' W 034°23'0 0.0 25.4
2014-Jul-22 01:05N 27°24' W 034°23'1 6.3 25.5
2014-Jul-22 01:00N 27°24' W 034°23'0 0.5 25.5
2014-Jul-22 00:18N 27°24' W 034°23'0 0.0 25.5
2014-Jul-21 23:23N 27°24' W 034°23'0 4.4 25.5
2014-Jul-21 23:20N 27°24' W 034°23'0 0.0 25.5
2014-Jul-21 22:38N 27°24' W 034°23'0 2.7 25.6
2014-Jul-21 22:30N 27°25' W 034°23'0 0.1 25.6
2014-Jul-21 21:41N 27°25' W 034°23'0 0.0 25.6
2014-Jul-21 21:32N 27°25' W 034°23'1 0.8 25.6
2014-Jul-21 20:35N 27°26' W 034°23'0 0.3 25.7
2014-Jul-21 19:51N 27°25' W 034°23'0 1.1 25.9
2014-Jul-21 19:38N 27°26' W 034°23'0 0.3 25.9
2014-Jul-21 18:53N 27°25' W 034°23'1 0.7 26.0
2014-Jul-21 18:00N 27°25' W 034°22'0 0.0 26.0
2014-Jul-21 17:11N 27°25' W 034°22'0 5.8 26.0
2014-Jul-21 17:06N 27°26' W 034°23'0 0.0 26.0
2014-Jul-21 16:17N 27°26' W 034°23'0 0.5 25.9
2014-Jul-21 15:29N 27°26' W 034°23'0 0.5 26.0
2014-Jul-21 15:23N 27°26' W 034°23'1 0.5 26.0
2014-Jul-21 13:48N 27°26' W 034°22'0 3.8 25.8
2014-Jul-21 13:42N 27°26' W 034°21'0 0.6 25.8
2014-Jul-21 13:05N 27°26' W 034°22'0 3.8 25.7
2014-Jul-21 12:59N 27°26' W 034°21'0 2.4 25.7
2014-Jul-21 12:53N 27°25' W 034°21'0 0.0
2014-Jul-21 12:08N 27°25' W 034°21'0 0.6 25.5
2014-Jul-21 12:02N 27°25' W 034°21'0 0.4 25.5
2014-Jul-21 11:23N 27°25' W 034°21'0 0.0 25.4
2014-Jul-21 10:29N 27°25' W 034°21'1 6.4 25.4
2014-Jul-21 10:23N 27°25' W 034°20'0 0.3
2014-Jul-21 09:17N 27°25' W 034°20'0 0.0 25.3
2014-Jul-21 09:12N 27°25' W 034°20'0 5.4 25.3
2014-Jul-21 09:08N 27°25' W 034°20'0 0.4 25.3
2014-Jul-21 08:17N 27°25' W 034°20'0 6.5 25.3
2014-Jul-21 08:14N 27°25' W 034°20'0 0.0 25.3
2014-Jul-21 08:11N 27°25' W 034°20'0 0.4 25.3
2014-Jul-21 07:36N 27°25' W 034°20'0 0.0 25.3
2014-Jul-21 07:33N 27°25' W 034°20'0 0.3 25.3
2014-Jul-21 06:36N 27°25' W 034°19'2 2.5 25.4
2014-Jul-21 05:59N 27°26' W 034°18'1 4.3 25.4
2014-Jul-21 05:47N 27°27' W 034°17'0 0.0 25.4
2014-Jul-21 05:44N 27°27' W 034°17'0 0.0 25.4
2014-Jul-21 05:39N 27°27' W 034°17'0 0.0 25.4
2014-Jul-21 04:08N 27°27' W 034°17'0 0.0 25.4
2014-Jul-21 04:05N 27°27' W 034°17'0 0.0 25.4
2014-Jul-21 03:57N 27°27' W 034°17'0 0.0
2014-Jul-21 01:24N 27°27' W 034°17'112.2 25.5
2014-Jul-21 01:21N 27°27' W 034°17'0 0.6 25.5
2014-Jul-21 00:38N 27°28' W 034°17'0 0.0 25.6
2014-Jul-20 23:45N 27°28' W 034°17'1 1.2
2014-Jul-20 22:53N 27°28' W 034°16'0 0.0 25.7
2014-Jul-20 22:48N 27°28' W 034°16'0 0.0 25.7
2014-Jul-20 22:06N 27°28' W 034°16'0 5.5 25.7
2014-Jul-20 22:02N 27°29' W 034°16'014.4 25.7
2014-Jul-20 22:00N 27°28' W 034°16'010.8 25.7
2014-Jul-20 21:59N 27°29' W 034°16'0 0.4 25.7
2014-Jul-20 20:57N 27°28' W 034°16'0 0.0 25.7
2014-Jul-20 20:14N 27°28' W 034°16'1 1.9 25.8
2014-Jul-20 19:50N 27°29' W 034°16'0 0.0 25.9
2014-Jul-20 19:21N 27°29' W 034°16'0 2.1 25.9
2014-Jul-20 19:14N 27°29' W 034°16'0 0.0 25.9
2014-Jul-20 18:08N 27°29' W 034°16'1 1.6 25.8
2014-Jul-20 17:39N 27°30' W 034°16'0 1.1 25.9
2014-Jul-20 17:18N 27°29' W 034°16'0 0.0 25.9
2014-Jul-20 17:15N 27°29' W 034°16'0 0.2 25.9
2014-Jul-20 16:27N 27°29' W 034°16'0 0.0 26.0
2014-Jul-20 15:38N 27°29' W 034°16'0 0.1 26.0
2014-Jul-20 14:08N 27°29' W 034°16'0 0.0 25.7
2014-Jul-20 13:53N 27°29' W 034°16'0 0.0 25.6
2014-Jul-20 13:21N 27°29' W 034°16'0 0.4 25.6
2014-Jul-20 12:29N 27°29' W 034°16'0 0.0 25.4
2014-Jul-20 12:23N 27°29' W 034°16'0 6.6 25.4
2014-Jul-20 12:21N 27°30' W 034°15'0 0.0 25.4
2014-Jul-20 11:42N 27°30' W 034°15'0 0.0 25.4
2014-Jul-20 11:38N 27°30' W 034°15'0 9.7
2014-Jul-20 11:35N 27°30' W 034°15'1 1.3 25.3
2014-Jul-20 10:50N 27°30' W 034°15'0 0.0 25.2
2014-Jul-20 10:42N 27°30' W 034°15'1 0.9 25.2
2014-Jul-20 09:42N 27°30' W 034°15'0 0.0 25.2
2014-Jul-20 09:39N 27°30' W 034°15'   25.2
Track history (hours):
 
Tides and Currents Weather Stations Pressure Air Temp Water Temp Dewpoint Dewpoint Depression Visibility Wind Speed Wind Dir Waves Ship Positions

Ao Chao Yang 13516

Last reported at 2014-Jul-30 09:29 UTC. Time now 2014-Jul-30 11:12 UTC.
Position N 26°55' W 035°07'.

Length 20 m.

Type: Fishing. MMSI: 412469022.

Water temperature 26.0 ° C

Date/timePositionNaut miles runAvg speedWind from/ knotsBaromVisibWave heightAir tempDewpointWater temp
2014-Jul-30 09:29N 26°55' W 035°07'1 1.0 26.0
2014-Jul-30 08:53N 26°55' W 035°07'1 1.0 26.0
2014-Jul-30 08:15N 26°56' W 035°07'0 2.6 26.0
2014-Jul-30 08:08N 26°56' W 035°07'0 0.0 26.0
2014-Jul-30 07:50N 26°56' W 035°07'0 0.6 26.0
2014-Jul-30 07:17N 26°56' W 035°07'0 0.4 26.0
2014-Jul-30 06:38N 26°56' W 035°07'0 3.6 26.0
2014-Jul-30 06:30N 26°56' W 035°06'0 0.0 26.0
2014-Jul-30 06:06N 26°56' W 035°06'0 0.0 26.0
2014-Jul-30 05:48N 26°56' W 035°06'1 7.2 26.0
2014-Jul-30 05:41N 26°57' W 035°06'0 0.0 26.0
2014-Jul-30 04:08N 26°57' W 035°06'0 3.7 26.0
2014-Jul-30 04:02N 26°57' W 035°07'0 0.1 26.0
2014-Jul-30 00:51N 26°57' W 035°07'0 0.0 26.1
2014-Jul-30 00:02N 26°57' W 035°07'0 0.0 26.2
2014-Jul-29 23:59N 26°57' W 035°07'0 0.4 26.2
2014-Jul-29 23:08N 26°58' W 035°07'0 3.3 26.2
2014-Jul-29 23:02N 26°58' W 035°07'0 0.0 26.2
2014-Jul-29 22:20N 26°58' W 035°07'0 2.6 26.3
2014-Jul-29 22:17N 26°58' W 035°07'0 0.2 26.3
2014-Jul-29 20:38N 26°58' W 035°06'0 2.3 26.4
2014-Jul-29 20:30N 26°57' W 035°06'0 0.0 26.4
2014-Jul-29 19:48N 26°57' W 035°06'111.3 26.4
2014-Jul-29 19:45N 26°57' W 035°06'0 0.0 26.4
2014-Jul-29 18:56N 26°57' W 035°06'0 0.1 26.6
2014-Jul-29 18:08N 26°57' W 035°06'1 9.7 26.7
2014-Jul-29 18:03N 26°57' W 035°05'0 0.0 26.7
2014-Jul-29 17:20N 26°57' W 035°05'1 7.7 26.7
2014-Jul-29 17:15N 26°57' W 035°04'0 0.0 26.7
2014-Jul-29 17:14N 26°57' W 035°04'0 0.0 26.7
2014-Jul-29 16:26N 26°57' W 035°04'0 0.1 26.7
2014-Jul-29 15:38N 26°57' W 035°04'1 0.6 26.8
2014-Jul-29 13:51N 26°58' W 035°03'1 3.2 26.6
2014-Jul-29 13:38N 26°58' W 035°02'0 0.1 26.6
2014-Jul-29 12:38N 26°58' W 035°02'0 0.3 26.4
2014-Jul-29 11:51N 26°58' W 035°02'144.1 26.3
2014-Jul-29 11:50N 26°58' W 035°01'0 0.0 26.2
2014-Jul-29 11:02N 26°58' W 035°01'0 4.5 26.1
2014-Jul-29 10:57N 26°58' W 035°01'0 0.0 26.1
2014-Jul-29 09:57N 26°58' W 035°01'1 0.8 25.9
2014-Jul-29 08:24N 26°59' W 035°00'0 6.4 25.9
2014-Jul-29 08:21N 26°59' W 034°60'0 0.0 25.9
2014-Jul-29 07:38N 26°59' W 034°60'1 0.9 25.9
2014-Jul-29 06:48N 27°00' W 034°59'0 3.0 25.9
2014-Jul-29 06:39N 27°00' W 034°59'0 0.0 25.9
2014-Jul-29 06:00N 27°00' W 034°59'116.2 25.9
2014-Jul-29 05:56N 27°01' W 034°59'0 0.0 25.9
2014-Jul-29 04:17N 27°01' W 034°59'1 6.2 26.0
2014-Jul-29 04:11N 27°02' W 034°59'1 0.6 26.0
2014-Jul-29 02:35N 27°02' W 034°60'0 0.0 25.9
2014-Jul-29 01:11N 27°02' W 034°60'0 0.0 26.0
2014-Jul-29 00:21N 27°02' W 034°60'1 0.8 26.0
2014-Jul-28 23:35N 27°03' W 034°59'115.0 26.2
2014-Jul-28 23:32N 27°03' W 035°00'0 0.0 26.2
2014-Jul-28 23:26N 27°03' W 035°00'0 0.2 26.2
2014-Jul-28 22:44N 27°03' W 035°00'0 1.5 26.4
2014-Jul-28 22:39N 27°03' W 035°00'115.6 26.4
2014-Jul-28 22:36N 27°02' W 035°01'0 7.4 26.4
2014-Jul-28 22:32N 27°03' W 035°00'1 0.4 26.4
2014-Jul-28 21:00N 27°03' W 034°60'0 0.2 26.7
2014-Jul-28 20:00N 27°03' W 034°60'0 0.0 27.5
2014-Jul-28 19:23N 27°03' W 034°60'0 0.0 27.8
2014-Jul-28 18:21N 27°03' W 034°60'0 0.7 27.6
2014-Jul-28 17:42N 27°03' W 034°59'0 0.9 27.3
2014-Jul-28 17:30N 27°03' W 034°59'1 0.6 27.4
2014-Jul-28 16:38N 27°02' W 034°59'0 0.0 26.9
2014-Jul-28 15:53N 27°02' W 034°59'2 0.9 27.6
2014-Jul-28 14:08N 27°02' W 034°57'0 0.0 26.6
2014-Jul-28 12:20N 27°02' W 034°57'0 3.3 26.3
2014-Jul-28 12:12N 27°02' W 034°57'0 0.0 26.3
2014-Jul-28 11:23N 27°02' W 034°57'0 6.0
2014-Jul-28 11:21N 27°02' W 034°57'113.6 25.9
2014-Jul-28 11:18N 27°03' W 034°57'0 0.0 25.9
2014-Jul-28 10:36N 27°03' W 034°57'1 9.0 25.9
2014-Jul-28 10:32N 27°03' W 034°56'0 0.0 25.9
2014-Jul-28 09:45N 27°03' W 034°56'110.4 25.9
2014-Jul-28 09:42N 27°03' W 034°56'0 0.0 25.9
2014-Jul-28 08:53N 27°03' W 034°56'0 0.6 25.7
2014-Jul-28 08:38N 27°03' W 034°55'1 0.6 25.7
2014-Jul-28 07:08N 27°03' W 034°55'0 0.0 25.8
2014-Jul-28 06:53N 27°03' W 034°55'0 9.1 25.8
2014-Jul-28 06:51N 27°04' W 034°55'0 0.0 25.8
2014-Jul-28 06:27N 27°04' W 034°55'0 1.3 25.8
2014-Jul-28 06:21N 27°04' W 034°55'0 0.0 25.7
2014-Jul-28 06:08N 27°04' W 034°55'1 7.3 25.8
2014-Jul-28 06:03N 27°04' W 034°54'0 0.0 25.8
2014-Jul-28 05:18N 27°04' W 034°54'0 0.3 25.8
2014-Jul-28 04:29N 27°04' W 034°54'211.3 25.8
2014-Jul-28 04:21N 27°06' W 034°54'0 0.0 25.8
2014-Jul-28 02:47N 27°06' W 034°54'0 0.0 25.8
2014-Jul-28 00:38N 27°06' W 034°54'0 0.2 25.9
2014-Jul-27 23:53N 27°06' W 034°54'0 1.2 26.0
2014-Jul-27 23:45N 27°06' W 034°54'0 0.0 26.0
2014-Jul-27 23:03N 27°06' W 034°54'0 2.8 26.0
2014-Jul-27 22:57N 27°06' W 034°55'0 1.6 26.0
2014-Jul-27 22:53N 27°06' W 034°54'0 0.1 26.0
2014-Jul-27 22:06N 27°06' W 034°55'0 0.0 26.0
2014-Jul-27 21:42N 27°06' W 034°55'0 0.2 26.1
2014-Jul-27 19:53N 27°06' W 034°54'0 0.0 26.2
2014-Jul-27 19:48N 27°06' W 034°54'0 5.3 26.2
2014-Jul-27 19:45N 27°07' W 034°54'0 0.0 26.2
2014-Jul-27 18:30N 27°07' W 034°54'0 0.0
2014-Jul-27 18:29N 27°07' W 034°54'0 0.2 26.3
2014-Jul-27 18:08N 27°07' W 034°54'1 1.8 26.4
2014-Jul-27 17:41N 27°06' W 034°54'0 0.0 26.6
2014-Jul-27 16:50N 27°06' W 034°54'0 0.5 26.6
2014-Jul-27 16:03N 27°06' W 034°54'0 0.0 26.2
2014-Jul-27 14:20N 27°06' W 034°54'1 0.7 25.9
2014-Jul-27 12:36N 27°06' W 034°52'0 0.0 25.7
2014-Jul-27 12:29N 27°06' W 034°52'0 0.1 25.7
2014-Jul-27 11:44N 27°06' W 034°52'1 8.1 25.7
2014-Jul-27 11:38N 27°06' W 034°51'0 0.0 25.7
2014-Jul-27 10:57N 27°06' W 034°51'110.6 25.7
2014-Jul-27 10:53N 27°06' W 034°51'0 0.0 25.7
2014-Jul-27 09:21N 27°06' W 034°51'0 0.8 25.7
2014-Jul-27 08:47N 27°06' W 034°50'0 3.2 25.7
2014-Jul-27 08:44N 27°07' W 034°50'0 0.0 25.7
2014-Jul-27 08:30N 27°07' W 034°50'0 0.3 25.7
2014-Jul-27 07:44N 27°07' W 034°50'0 0.5 25.7
2014-Jul-27 07:08N 27°07' W 034°50'0 4.1 25.7
2014-Jul-27 07:03N 27°07' W 034°50'0 1.1 25.7
2014-Jul-27 07:00N 27°07' W 034°50'0 0.0 25.7
2014-Jul-27 06:48N 27°07' W 034°50'110.1 25.7
2014-Jul-27 06:45N 27°08' W 034°50'0 0.0 25.7
2014-Jul-27 06:21N 27°08' W 034°50'1 4.4 25.7
2014-Jul-27 06:14N 27°08' W 034°49'0 0.0 25.7
2014-Jul-27 05:30N 27°08' W 034°49'0 4.9 25.7
2014-Jul-27 05:27N 27°08' W 034°49'1 0.6 25.7
2014-Jul-27 04:36N 27°08' W 034°49'1 0.7 25.7
2014-Jul-27 03:00N 27°09' W 034°49'0 5.8 25.7
2014-Jul-27 02:57N 27°09' W 034°49'1 9.2 25.7
2014-Jul-27 02:51N 27°10' W 034°48'0 0.0
2014-Jul-27 01:02N 27°10' W 034°48'0 2.9 25.6
2014-Jul-27 00:57N 27°10' W 034°48'0 0.3 25.6
2014-Jul-27 00:15N 27°10' W 034°48'0 2.7 25.6
2014-Jul-27 00:08N 27°10' W 034°48'0 0.0
2014-Jul-26 23:23N 27°10' W 034°48'0 3.2 25.7
2014-Jul-26 23:17N 27°10' W 034°48'0 0.0 25.7
2014-Jul-26 22:35N 27°10' W 034°48'0 2.6 25.7
2014-Jul-26 22:32N 27°10' W 034°48'0 5.0 25.7
2014-Jul-26 22:26N 27°11' W 034°49'0 1.0 25.7
2014-Jul-26 22:12N 27°10' W 034°49'0 3.6 25.8
2014-Jul-26 22:08N 27°11' W 034°49'0 0.5 25.8
2014-Jul-26 21:41N 27°10' W 034°49'0 0.3 25.8
2014-Jul-26 20:26N 27°11' W 034°49'0 1.0 25.9
2014-Jul-26 20:06N 27°10' W 034°49'0 0.2 25.9
2014-Jul-26 18:38N 27°11' W 034°49'0 2.4 26.1
2014-Jul-26 18:32N 27°11' W 034°49'1 1.2 26.1
2014-Jul-26 17:51N 27°10' W 034°48'1 0.6 26.1
2014-Jul-26 17:02N 27°10' W 034°49'0 0.1 26.1
2014-Jul-26 16:14N 27°10' W 034°49'0 0.0 26.1
2014-Jul-26 16:08N 27°10' W 034°49'1 0.9 26.1
2014-Jul-26 14:32N 27°10' W 034°47'0 0.0 25.9
2014-Jul-26 13:45N 27°10' W 034°47'0 0.0 25.9
2014-Jul-26 13:02N 27°10' W 034°47'1 0.6 25.9
2014-Jul-26 12:05N 27°10' W 034°47'1 5.5 25.7
2014-Jul-26 11:59N 27°10' W 034°47'0 0.0 25.7
2014-Jul-26 11:20N 27°10' W 034°47'1 6.3 25.7
2014-Jul-26 11:15N 27°10' W 034°47'113.3 25.7
2014-Jul-26 11:11N 27°10' W 034°46'0 0.0 25.7
2014-Jul-26 10:24N 27°10' W 034°46'1 9.9 25.7
2014-Jul-26 10:20N 27°10' W 034°46'1 1.3 25.7
2014-Jul-26 09:51N 27°10' W 034°46'0 0.0 25.6
2014-Jul-26 08:53N 27°10' W 034°46'1 2.0 25.6
2014-Jul-26 08:15N 27°10' W 034°44'0 0.3 25.6
2014-Jul-26 06:35N 27°11' W 034°44'0 1.3 25.8
2014-Jul-26 06:30N 27°11' W 034°44'0 0.0 25.8
2014-Jul-26 05:38N 27°11' W 034°44'0 0.6 25.9
2014-Jul-26 04:50N 27°11' W 034°44'111.6 26.1
2014-Jul-26 04:44N 27°12' W 034°43'0 0.2 26.1
2014-Jul-26 03:08N 27°12' W 034°43'120.6
2014-Jul-26 03:05N 27°13' W 034°42'0 0.0 26.3
2014-Jul-26 01:21N 27°13' W 034°42'0 5.8 26.6
2014-Jul-26 01:18N 27°13' W 034°42'0 0.4 26.6
2014-Jul-26 00:36N 27°14' W 034°42'0 0.2 26.7
2014-Jul-25 22:51N 27°14' W 034°42'013.3
2014-Jul-25 22:50N 27°14' W 034°42'0 0.4 27.2
2014-Jul-25 22:41N 27°14' W 034°42'0 0.5 27.2
2014-Jul-25 22:02N 27°14' W 034°41'1 0.7 27.2
2014-Jul-25 21:06N 27°14' W 034°42'1 1.0 27.6
2014-Jul-25 20:36N 27°14' W 034°43'0 0.0 26.9
2014-Jul-25 19:17N 27°14' W 034°43'0 0.0 27.2
2014-Jul-25 18:53N 27°14' W 034°43'1 0.4 27.3
2014-Jul-25 17:14N 27°14' W 034°42'0 0.2 28.2
2014-Jul-25 16:26N 27°14' W 034°42'0 6.4 28.5
2014-Jul-25 16:23N 27°14' W 034°42'0 0.3 28.5
2014-Jul-25 14:42N 27°14' W 034°42'0 0.0 27.8
2014-Jul-25 14:05N 27°14' W 034°42'0 0.0 27.6
2014-Jul-25 13:21N 27°14' W 034°42'0 0.0 27.6
2014-Jul-25 13:17N 27°14' W 034°42'0 0.1 27.6
2014-Jul-25 12:23N 27°15' W 034°42'0 4.7 26.9
2014-Jul-25 12:18N 27°15' W 034°41'0 0.0 26.9
2014-Jul-25 11:38N 27°15' W 034°41'0 1.6
2014-Jul-25 11:36N 27°15' W 034°41'0 6.8 26.1
2014-Jul-25 11:33N 27°15' W 034°42'0 0.5 26.1
2014-Jul-25 10:45N 27°15' W 034°41'1 5.3 25.7
2014-Jul-25 10:38N 27°15' W 034°41'0 0.0
2014-Jul-25 09:21N 27°15' W 034°41'0 0.8 25.5
2014-Jul-25 08:47N 27°14' W 034°40'1 0.5 25.5
2014-Jul-25 07:29N 27°14' W 034°40'0 0.0 25.5
2014-Jul-25 07:24N 27°14' W 034°40'0 0.0 25.5
2014-Jul-25 07:06N 27°14' W 034°40'1 1.4 25.5
2014-Jul-25 06:39N 27°14' W 034°39'0 0.1 25.5
2014-Jul-25 05:56N 27°14' W 034°39'0 0.0 25.5
2014-Jul-25 05:51N 27°14' W 034°39'1 0.7 25.6
2014-Jul-25 05:02N 27°15' W 034°39'1 8.6 25.6
2014-Jul-25 04:53N 27°16' W 034°38'0 0.1
2014-Jul-25 03:21N 27°16' W 034°38'112.8 25.7
2014-Jul-25 03:15N 27°17' W 034°37'0 0.0 25.7
2014-Jul-25 00:56N 27°17' W 034°37'0 0.0 25.8
2014-Jul-25 00:05N 27°17' W 034°37'0 1.6 25.9
2014-Jul-25 00:02N 27°17' W 034°37'1 0.7 25.9
2014-Jul-24 23:17N 27°17' W 034°37'0 3.3 25.9
2014-Jul-24 23:08N 27°17' W 034°37'0 0.0 25.9
2014-Jul-24 22:23N 27°17' W 034°37'0 9.9 26.0
2014-Jul-24 22:20N 27°18' W 034°37'0 0.0 26.0
2014-Jul-24 22:14N 27°18' W 034°37'0 0.0 26.0
2014-Jul-24 21:36N 27°18' W 034°37'0 0.7 26.2
2014-Jul-24 20:59N 27°18' W 034°37'0 0.0 26.2
2014-Jul-24 19:50N 27°18' W 034°37'0 8.6 26.4
2014-Jul-24 19:47N 27°18' W 034°37'0 0.1 26.4
2014-Jul-24 19:05N 27°18' W 034°37'0 0.1 26.2
2014-Jul-24 17:39N 27°18' W 034°37'0 0.4 26.2
2014-Jul-24 17:26N 27°18' W 034°37'0 0.5 26.2
2014-Jul-24 16:36N 27°19' W 034°37'0 0.0 26.0
2014-Jul-24 14:53N 27°19' W 034°37'1 0.6 26.2
2014-Jul-24 13:41N 27°19' W 034°36'0 8.9 26.0
2014-Jul-24 13:38N 27°19' W 034°37'0 0.5 25.9
2014-Jul-24 12:44N 27°19' W 034°36'0 3.3 25.7
2014-Jul-24 12:38N 27°20' W 034°37'0 0.0 25.7
2014-Jul-24 12:03N 27°20' W 034°37'0 0.0 25.6
2014-Jul-24 12:00N 27°20' W 034°37'0 0.0 25.6
2014-Jul-24 11:57N 27°20' W 034°37'0 3.1 25.6
2014-Jul-24 11:53N 27°20' W 034°37'0 0.0 25.5
2014-Jul-24 11:06N 27°20' W 034°37'0 2.7 25.4
2014-Jul-24 11:02N 27°20' W 034°37'1 0.5 25.4
2014-Jul-24 09:44N 27°19' W 034°37'127.3 25.3
2014-Jul-24 09:41N 27°19' W 034°35'1 2.8 25.3
2014-Jul-24 09:17N 27°19' W 034°36'1 0.9 25.3
2014-Jul-24 08:02N 27°19' W 034°35'0 0.6 25.3
2014-Jul-24 07:39N 27°19' W 034°35'013.3 25.3
2014-Jul-24 07:38N 27°19' W 034°35'0 0.4 25.3
2014-Jul-24 06:26N 27°19' W 034°36'0 1.3 25.3
2014-Jul-24 06:20N 27°19' W 034°36'0 0.0 25.3
2014-Jul-24 06:05N 27°19' W 034°36'0 4.2 25.3
2014-Jul-24 06:02N 27°19' W 034°36'1 7.2 25.3
2014-Jul-24 05:57N 27°19' W 034°35'0 0.0 25.3
2014-Jul-24 05:08N 27°19' W 034°35'112.0 25.4
2014-Jul-24 05:05N 27°19' W 034°35'0 0.1 25.4
2014-Jul-24 03:35N 27°19' W 034°35'0 0.0 25.4
2014-Jul-24 03:32N 27°19' W 034°35'1 9.7 25.4
2014-Jul-24 03:26N 27°20' W 034°34'0 0.0 25.4
2014-Jul-24 01:11N 27°20' W 034°34'0 0.0 25.4
2014-Jul-24 00:26N 27°20' W 034°34'0 0.2 25.4
2014-Jul-23 23:38N 27°20' W 034°34'0 0.0 25.4
2014-Jul-23 23:33N 27°20' W 034°34'0 0.0 25.4
2014-Jul-23 22:45N 27°20' W 034°34'0 1.2 25.4
2014-Jul-23 22:39N 27°20' W 034°34'1 8.1 25.4
2014-Jul-23 22:35N 27°21' W 034°34'0 0.0 25.4
2014-Jul-23 22:06N 27°21' W 034°34'0 1.2 25.5
2014-Jul-23 21:51N 27°21' W 034°34'0 0.1 25.5
2014-Jul-23 20:20N 27°21' W 034°34'0 0.0 25.6
2014-Jul-23 19:47N 27°21' W 034°34'0 0.2 25.6
2014-Jul-23 19:17N 27°21' W 034°34'0 0.1 25.7
2014-Jul-23 18:06N 27°21' W 034°34'0 0.0 25.7
2014-Jul-23 17:36N 27°21' W 034°34'1 1.1 25.7
2014-Jul-23 16:45N 27°22' W 034°33'1 0.4 25.6
2014-Jul-23 15:06N 27°21' W 034°33'0 0.3 25.7
2014-Jul-23 13:59N 27°21' W 034°33'0 0.4 25.5
2014-Jul-23 13:08N 27°21' W 034°33'0 2.6 25.5
2014-Jul-23 13:00N 27°21' W 034°33'0 0.0 25.5
2014-Jul-23 12:23N 27°21' W 034°33'0 0.9 25.4
2014-Jul-23 12:15N 27°21' W 034°33'0 0.0 25.4
2014-Jul-23 11:27N 27°21' W 034°33'0 5.6 25.3
2014-Jul-23 11:24N 27°21' W 034°32'0 5.5 25.3
2014-Jul-23 11:21N 27°21' W 034°32'0 0.6 25.3
2014-Jul-23 10:39N 27°21' W 034°32'0 0.0 25.3
2014-Jul-23 09:47N 27°21' W 034°32'1 0.6 25.2
2014-Jul-23 08:26N 27°21' W 034°32'1 3.9 25.2
2014-Jul-23 08:08N 27°21' W 034°33'1 4.7 25.2
2014-Jul-23 07:53N 27°21' W 034°32'0 0.0 25.2
2014-Jul-23 07:48N 27°21' W 034°32'0 0.0 25.2
2014-Jul-23 06:51N 27°21' W 034°32'1 1.9 25.2
2014-Jul-23 06:29N 27°21' W 034°31'0 1.0 25.3
2014-Jul-23 06:17N 27°21' W 034°31'0 0.0 25.3
2014-Jul-23 06:14N 27°21' W 034°31'0 4.6 25.3
2014-Jul-23 06:08N 27°21' W 034°31'0 0.0 25.3
2014-Jul-23 05:23N 27°21' W 034°31'0 3.2 25.3
2014-Jul-23 05:15N 27°22' W 034°30'0 0.1 25.3
2014-Jul-23 03:47N 27°22' W 034°30'0 0.0 25.4
2014-Jul-23 03:42N 27°22' W 034°30'0 4.5 25.4
2014-Jul-23 03:38N 27°22' W 034°30'0 0.0 25.4
2014-Jul-23 00:45N 27°22' W 034°30'0 0.5 25.4
2014-Jul-22 23:51N 27°22' W 034°30'0 0.0 25.4
2014-Jul-22 23:06N 27°22' W 034°30'1 5.9 25.4
2014-Jul-22 23:00N 27°22' W 034°31'1 1.0 25.4
2014-Jul-22 22:18N 27°22' W 034°30'0 3.2 25.5
2014-Jul-22 22:15N 27°22' W 034°30'0 0.0
2014-Jul-22 22:08N 27°22' W 034°30'1 0.5 25.5
2014-Jul-22 20:53N 27°23' W 034°30'115.3 25.5
2014-Jul-22 20:50N 27°22' W 034°29'0 0.0 25.5
2014-Jul-22 20:11N 27°22' W 034°29'0 0.2 25.6
2014-Jul-22 19:29N 27°22' W 034°29'0 0.9 25.7
2014-Jul-22 19:12N 27°22' W 034°30'0 0.0 25.7
2014-Jul-22 18:30N 27°22' W 034°30'0 4.8 25.8
2014-Jul-22 18:29N 27°22' W 034°29'0 0.5 25.8
2014-Jul-22 17:48N 27°22' W 034°29'0 0.3 25.9
2014-Jul-22 16:57N 27°22' W 034°29'0 0.0 26.0
2014-Jul-22 16:53N 27°22' W 034°29'1 0.5 26.0
2014-Jul-22 15:17N 27°22' W 034°28'1 0.1 25.7
2014-Jul-22 11:48N 27°22' W 034°28'0 1.7 25.4
2014-Jul-22 11:42N 27°22' W 034°28'1 8.0 25.4
2014-Jul-22 11:38N 27°22' W 034°27'0 0.0
2014-Jul-22 11:02N 27°22' W 034°27'0 2.4 25.4
2014-Jul-22 10:59N 27°22' W 034°27'114.7 25.4
2014-Jul-22 10:56N 27°22' W 034°26'0 0.0 25.4
2014-Jul-22 08:53N 27°22' W 034°26'0 0.4 25.3
2014-Jul-22 08:03N 27°22' W 034°26'1 9.0 25.3
2014-Jul-22 07:59N 27°22' W 034°25'0 0.0 25.3
2014-Jul-22 07:14N 27°22' W 034°25'0 1.6 25.3
2014-Jul-22 07:02N 27°23' W 034°25'0 0.6 25.3
2014-Jul-22 06:27N 27°22' W 034°25'0 2.4 25.3
2014-Jul-22 06:24N 27°22' W 034°25'0 4.9 25.3
2014-Jul-22 06:18N 27°22' W 034°25'0 0.6 25.3
2014-Jul-22 05:32N 27°22' W 034°24'1 0.4 25.4
2014-Jul-22 03:53N 27°23' W 034°24'0 9.6 25.4
2014-Jul-22 03:50N 27°23' W 034°24'115.4 25.4
2014-Jul-22 03:45N 27°24' W 034°23'0 0.0 25.4
2014-Jul-22 01:05N 27°24' W 034°23'1 6.3 25.5
2014-Jul-22 01:00N 27°24' W 034°23'0 0.5 25.5
2014-Jul-22 00:18N 27°24' W 034°23'0 0.0 25.5
2014-Jul-21 23:23N 27°24' W 034°23'0 4.4 25.5
2014-Jul-21 23:20N 27°24' W 034°23'0 0.0 25.5
2014-Jul-21 22:38N 27°24' W 034°23'0 2.7 25.6
2014-Jul-21 22:30N 27°25' W 034°23'0 0.1 25.6
2014-Jul-21 21:41N 27°25' W 034°23'0 0.0 25.6
2014-Jul-21 21:32N 27°25' W 034°23'1 0.8 25.6
2014-Jul-21 20:35N 27°26' W 034°23'0 0.3 25.7
2014-Jul-21 19:51N 27°25' W 034°23'0 1.1 25.9
2014-Jul-21 19:38N 27°26' W 034°23'0 0.3 25.9
2014-Jul-21 18:53N 27°25' W 034°23'1 0.7 26.0
2014-Jul-21 18:00N 27°25' W 034°22'0 0.0 26.0
2014-Jul-21 17:11N 27°25' W 034°22'0 5.8 26.0
2014-Jul-21 17:06N 27°26' W 034°23'0 0.0 26.0
2014-Jul-21 16:17N 27°26' W 034°23'0 0.5 25.9
2014-Jul-21 15:29N 27°26' W 034°23'0 0.5 26.0
2014-Jul-21 15:23N 27°26' W 034°23'1 0.5 26.0
2014-Jul-21 13:48N 27°26' W 034°22'0 3.8 25.8
2014-Jul-21 13:42N 27°26' W 034°21'0 0.6 25.8
2014-Jul-21 13:05N 27°26' W 034°22'0 3.8 25.7
2014-Jul-21 12:59N 27°26' W 034°21'0 2.4 25.7
2014-Jul-21 12:53N 27°25' W 034°21'0 0.0
2014-Jul-21 12:08N 27°25' W 034°21'0 0.6 25.5
2014-Jul-21 12:02N 27°25' W 034°21'0 0.4 25.5
2014-Jul-21 11:23N 27°25' W 034°21'0 0.0 25.4
2014-Jul-21 10:29N 27°25' W 034°21'1 6.4 25.4
2014-Jul-21 10:23N 27°25' W 034°20'0 0.3
2014-Jul-21 09:17N 27°25' W 034°20'0 0.0 25.3
2014-Jul-21 09:12N 27°25' W 034°20'0 5.4 25.3
2014-Jul-21 09:08N 27°25' W 034°20'0 0.4 25.3
2014-Jul-21 08:17N 27°25' W 034°20'0 6.5 25.3
2014-Jul-21 08:14N 27°25' W 034°20'0 0.0 25.3
2014-Jul-21 08:11N 27°25' W 034°20'0 0.4 25.3
2014-Jul-21 07:36N 27°25' W 034°20'0 0.0 25.3
2014-Jul-21 07:33N 27°25' W 034°20'0 0.3 25.3
2014-Jul-21 06:36N 27°25' W 034°19'2 2.5 25.4
2014-Jul-21 05:59N 27°26' W 034°18'1 4.3 25.4
2014-Jul-21 05:47N 27°27' W 034°17'0 0.0 25.4
2014-Jul-21 05:44N 27°27' W 034°17'0 0.0 25.4
2014-Jul-21 05:39N 27°27' W 034°17'0 0.0 25.4
2014-Jul-21 04:08N 27°27' W 034°17'0 0.0 25.4
2014-Jul-21 04:05N 27°27' W 034°17'0 0.0 25.4
2014-Jul-21 03:57N 27°27' W 034°17'0 0.0
2014-Jul-21 01:24N 27°27' W 034°17'112.2 25.5
2014-Jul-21 01:21N 27°27' W 034°17'0 0.6 25.5
2014-Jul-21 00:38N 27°28' W 034°17'0 0.0 25.6
2014-Jul-20 23:45N 27°28' W 034°17'1 1.2
2014-Jul-20 22:53N 27°28' W 034°16'0 0.0 25.7
2014-Jul-20 22:48N 27°28' W 034°16'0 0.0 25.7
2014-Jul-20 22:06N 27°28' W 034°16'0 5.5 25.7
2014-Jul-20 22:02N 27°29' W 034°16'014.4 25.7
2014-Jul-20 22:00N 27°28' W 034°16'010.8 25.7
2014-Jul-20 21:59N 27°29' W 034°16'0 0.4 25.7
2014-Jul-20 20:57N 27°28' W 034°16'0 0.0 25.7
2014-Jul-20 20:14N 27°28' W 034°16'1 1.9 25.8
2014-Jul-20 19:50N 27°29' W 034°16'0 0.0 25.9
2014-Jul-20 19:21N 27°29' W 034°16'0 2.1 25.9
2014-Jul-20 19:14N 27°29' W 034°16'0 0.0 25.9
2014-Jul-20 18:08N 27°29' W 034°16'1 1.6 25.8
2014-Jul-20 17:39N 27°30' W 034°16'0 1.1 25.9
2014-Jul-20 17:18N 27°29' W 034°16'0 0.0 25.9
2014-Jul-20 17:15N 27°29' W 034°16'0 0.2 25.9
2014-Jul-20 16:27N 27°29' W 034°16'0 0.0 26.0
2014-Jul-20 15:38N 27°29' W 034°16'0 0.1 26.0
2014-Jul-20 14:08N 27°29' W 034°16'0 0.0 25.7
2014-Jul-20 13:53N 27°29' W 034°16'0 0.0 25.6
2014-Jul-20 13:21N 27°29' W 034°16'0 0.4 25.6
2014-Jul-20 12:29N 27°29' W 034°16'0 0.0 25.4
2014-Jul-20 12:23N 27°29' W 034°16'0 6.6 25.4
2014-Jul-20 12:21N 27°30' W 034°15'0 0.0 25.4
2014-Jul-20 11:42N 27°30' W 034°15'0 0.0 25.4
2014-Jul-20 11:38N 27°30' W 034°15'0 9.7
2014-Jul-20 11:35N 27°30' W 034°15'1 1.3 25.3
2014-Jul-20 10:50N 27°30' W 034°15'0 0.0 25.2
2014-Jul-20 10:42N 27°30' W 034°15'1 0.9 25.2
2014-Jul-20 09:42N 27°30' W 034°15'0 0.0 25.2
2014-Jul-20 09:39N 27°30' W 034°15'   25.2

Dump ship's entire track history